sensor_id;sensor_type;location;lat;lon;timestamp;pressure;altitude;pressure_sealevel;temperature;humidity
7918;BME280;4004;42.624;23.386;2023-08-07T00:01:23;93637.50;;;17.18;100.00
7918;BME280;4004;42.624;23.386;2023-08-07T00:03:51;93620.94;;;17.09;100.00
7918;BME280;4004;42.624;23.386;2023-08-07T00:06:18;93627.34;;;16.95;100.00
7918;BME280;4004;42.624;23.386;2023-08-07T00:08:45;93630.00;;;16.98;100.00
7918;BME280;4004;42.624;23.386;2023-08-07T00:11:11;93624.59;;;16.98;100.00
7918;BME280;4004;42.624;23.386;2023-08-07T00:13:38;93635.56;;;16.88;100.00
7918;BME280;4004;42.624;23.386;2023-08-07T00:16:05;93632.56;;;16.78;100.00
7918;BME280;4004;42.624;23.386;2023-08-07T00:18:32;93642.13;;;16.90;100.00
7918;BME280;4004;42.624;23.386;2023-08-07T00:21:00;93633.63;;;16.88;100.00
7918;BME280;4004;42.624;23.386;2023-08-07T00:23:26;93624.66;;;16.91;100.00
7918;BME280;4004;42.624;23.386;2023-08-07T00:25:53;93630.53;;;16.86;100.00
7918;BME280;4004;42.624;23.386;2023-08-07T00:28:20;93627.81;;;16.86;100.00
7918;BME280;4004;42.624;23.386;2023-08-07T00:30:47;93635.56;;;16.88;100.00
7918;BME280;4004;42.624;23.386;2023-08-07T00:33:13;93634.28;;;16.96;100.00
7918;BME280;4004;42.624;23.386;2023-08-07T00:35:40;93638.19;;;16.95;100.00
7918;BME280;4004;42.624;23.386;2023-08-07T00:38:08;93644.38;;;16.95;100.00
7918;BME280;4004;42.624;23.386;2023-08-07T00:40:38;93648.59;;;17.00;100.00
7918;BME280;4004;42.624;23.386;2023-08-07T00:43:05;93647.38;;;17.05;100.00
7918;BME280;4004;42.624;23.386;2023-08-07T00:45:35;93652.06;;;17.01;100.00
7918;BME280;4004;42.624;23.386;2023-08-07T00:48:04;93658.28;;;17.01;100.00
7918;BME280;4004;42.624;23.386;2023-08-07T00:50:31;93664.41;;;17.09;100.00
7918;BME280;4004;42.624;23.386;2023-08-07T00:52:59;93667.94;;;17.06;100.00
7918;BME280;4004;42.624;23.386;2023-08-07T00:55:28;93667.09;;;17.09;100.00
7918;BME280;4004;42.624;23.386;2023-08-07T00:57:56;93666.75;;;17.07;100.00
7918;BME280;4004;42.624;23.386;2023-08-07T01:00:23;93667.47;;;17.11;100.00
7918;BME280;4004;42.624;23.386;2023-08-07T01:02:50;93661.53;;;17.19;100.00
7918;BME280;4004;42.624;23.386;2023-08-07T01:05:18;93663.16;;;17.13;100.00
7918;BME280;4004;42.624;23.386;2023-08-07T01:07:47;93669.38;;;17.14;100.00
7918;BME280;4004;42.624;23.386;2023-08-07T01:10:17;93681.91;;;17.04;100.00
7918;BME280;4004;42.624;23.386;2023-08-07T01:12:55;93689.69;;;17.02;100.00
7918;BME280;4004;42.624;23.386;2023-08-07T01:15:30;93687.31;;;17.08;100.00
7918;BME280;4004;42.624;23.386;2023-08-07T01:17:57;93684.59;;;17.08;100.00
7918;BME280;4004;42.624;23.386;2023-08-07T01:20:25;93683.91;;;17.00;100.00
7918;BME280;4004;42.624;23.386;2023-08-07T01:22:53;93676.09;;;17.06;100.00
7918;BME280;4004;42.624;23.386;2023-08-07T01:25:20;93686.81;;;17.16;100.00
7918;BME280;4004;42.624;23.386;2023-08-07T01:27:53;93687.56;;;17.17;100.00
7918;BME280;4004;42.624;23.386;2023-08-07T01:30:27;93679.34;;;17.24;100.00
7918;BME280;4004;42.624;23.386;2023-08-07T01:32:59;93674.22;;;17.30;100.00
7918;BME280;4004;42.624;23.386;2023-08-07T01:35:34;93678.72;;;17.40;100.00
7918;BME280;4004;42.624;23.386;2023-08-07T01:38:04;93672.94;;;17.38;100.00
7918;BME280;4004;42.624;23.386;2023-08-07T01:40:32;93673.28;;;17.40;100.00
7918;BME280;4004;42.624;23.386;2023-08-07T01:42:59;93681.16;;;17.34;100.00
7918;BME280;4004;42.624;23.386;2023-08-07T01:45:28;93684.41;;;17.22;100.00
7918;BME280;4004;42.624;23.386;2023-08-07T01:47:55;93689.06;;;17.22;100.00
7918;BME280;4004;42.624;23.386;2023-08-07T01:50:23;93684.38;;;17.26;100.00
7918;BME280;4004;42.624;23.386;2023-08-07T01:52:50;93683.53;;;17.29;100.00
7918;BME280;4004;42.624;23.386;2023-08-07T01:55:20;93683.44;;;17.36;100.00
7918;BME280;4004;42.624;23.386;2023-08-07T01:57:47;93689.28;;;17.34;100.00
7918;BME280;4004;42.624;23.386;2023-08-07T02:00:14;93683.91;;;17.31;100.00
7918;BME280;4004;42.624;23.386;2023-08-07T02:02:41;93686.59;;;17.34;100.00
7918;BME280;4004;42.624;23.386;2023-08-07T02:05:08;93690.59;;;17.23;100.00
7918;BME280;4004;42.624;23.386;2023-08-07T02:07:34;93686.03;;;17.16;100.00
7918;BME280;4004;42.624;23.386;2023-08-07T02:10:01;93687.69;;;17.10;100.00
7918;BME280;4004;42.624;23.386;2023-08-07T02:12:29;93697.91;;;16.98;100.00
7918;BME280;4004;42.624;23.386;2023-08-07T02:14:57;93698.78;;;16.88;100.00
7918;BME280;4004;42.624;23.386;2023-08-07T02:17:24;93691.47;;;16.78;100.00
7918;BME280;4004;42.624;23.386;2023-08-07T02:19:51;93699.75;;;16.67;100.00
7918;BME280;4004;42.624;23.386;2023-08-07T02:22:18;93704.03;;;16.65;100.00
7918;BME280;4004;42.624;23.386;2023-08-07T02:24:45;93714.97;;;16.57;100.00
7918;BME280;4004;42.624;23.386;2023-08-07T02:27:11;93705.44;;;16.42;100.00
7918;BME280;4004;42.624;23.386;2023-08-07T02:29:40;93719.03;;;16.39;100.00
7918;BME280;4004;42.624;23.386;2023-08-07T02:32:07;93709.69;;;16.43;100.00
7918;BME280;4004;42.624;23.386;2023-08-07T02:34:33;93716.19;;;16.49;100.00
7918;BME280;4004;42.624;23.386;2023-08-07T02:37:00;93718.16;;;16.49;100.00
7918;BME280;4004;42.624;23.386;2023-08-07T02:39:27;93720.47;;;16.50;100.00
7918;BME280;4004;42.624;23.386;2023-08-07T02:41:54;93713.41;;;16.19;100.00
7918;BME280;4004;42.624;23.386;2023-08-07T02:44:20;93713.44;;;16.15;100.00
7918;BME280;4004;42.624;23.386;2023-08-07T02:46:48;93716.41;;;16.28;100.00
7918;BME280;4004;42.624;23.386;2023-08-07T02:49:15;93715.59;;;16.31;100.00
7918;BME280;4004;42.624;23.386;2023-08-07T02:51:42;93714.31;;;16.46;100.00
7918;BME280;4004;42.624;23.386;2023-08-07T02:54:09;93723.13;;;16.54;100.00
7918;BME280;4004;42.624;23.386;2023-08-07T02:56:35;93726.19;;;16.63;100.00
7918;BME280;4004;42.624;23.386;2023-08-07T02:59:02;93728.84;;;16.67;100.00
7918;BME280;4004;42.624;23.386;2023-08-07T03:01:30;93730.03;;;16.66;100.00
7918;BME280;4004;42.624;23.386;2023-08-07T03:03:58;93733.09;;;16.68;100.00
7918;BME280;4004;42.624;23.386;2023-08-07T03:06:24;93740.03;;;16.72;100.00
7918;BME280;4004;42.624;23.386;2023-08-07T03:08:51;93734.19;;;16.74;100.00
7918;BME280;4004;42.624;23.386;2023-08-07T03:11:18;93742.63;;;16.87;100.00
7918;BME280;4004;42.624;23.386;2023-08-07T03:13:45;93742.22;;;16.88;100.00
7918;BME280;4004;42.624;23.386;2023-08-07T03:16:11;93749.19;;;16.89;100.00
7918;BME280;4004;42.624;23.386;2023-08-07T03:18:38;93749.97;;;16.90;100.00
7918;BME280;4004;42.624;23.386;2023-08-07T03:21:06;93756.84;;;16.98;100.00
7918;BME280;4004;42.624;23.386;2023-08-07T03:23:33;93759.91;;;17.04;100.00
7918;BME280;4004;42.624;23.386;2023-08-07T03:26:04;93764.88;;;17.09;100.00
7918;BME280;4004;42.624;23.386;2023-08-07T03:28:32;93763.28;;;17.11;100.00
7918;BME280;4004;42.624;23.386;2023-08-07T03:30:58;93765.91;;;17.22;100.00
7918;BME280;4004;42.624;23.386;2023-08-07T03:33:25;93776.66;;;17.29;100.00
7918;BME280;4004;42.624;23.386;2023-08-07T03:35:52;93766.03;;;17.42;100.00
7918;BME280;4004;42.624;23.386;2023-08-07T03:38:20;93769.53;;;17.73;100.00
7918;BME280;4004;42.624;23.386;2023-08-07T03:40:47;93770.50;;;17.90;100.00
7918;BME280;4004;42.624;23.386;2023-08-07T03:43:14;93768.03;;;17.99;100.00
7918;BME280;4004;42.624;23.386;2023-08-07T03:45:41;93772.69;;;17.99;100.00
7918;BME280;4004;42.624;23.386;2023-08-07T03:48:08;93771.25;;;17.91;100.00
7918;BME280;4004;42.624;23.386;2023-08-07T03:50:35;93767.34;;;17.92;100.00
7918;BME280;4004;42.624;23.386;2023-08-07T03:53:03;93780.34;;;17.77;100.00
7918;BME280;4004;42.624;23.386;2023-08-07T03:55:33;93786.09;;;17.86;100.00
7918;BME280;4004;42.624;23.386;2023-08-07T03:58:00;93758.66;;;17.73;100.00
7918;BME280;4004;42.624;23.386;2023-08-07T04:00:27;93794.22;;;17.90;100.00
7918;BME280;4004;42.624;23.386;2023-08-07T04:02:54;93801.81;;;17.98;100.00
7918;BME280;4004;42.624;23.386;2023-08-07T04:05:21;93803.13;;;18.17;100.00
7918;BME280;4004;42.624;23.386;2023-08-07T04:07:48;93805.63;;;18.05;100.00
7918;BME280;4004;42.624;23.386;2023-08-07T04:10:14;93798.19;;;18.09;100.00
7918;BME280;4004;42.624;23.386;2023-08-07T04:12:43;93808.94;;;18.19;100.00
7918;BME280;4004;42.624;23.386;2023-08-07T04:15:10;93814.25;;;18.27;100.00
7918;BME280;4004;42.624;23.386;2023-08-07T04:17:36;93812.66;;;18.29;100.00
7918;BME280;4004;42.624;23.386;2023-08-07T04:20:04;93816.41;;;18.39;100.00
7918;BME280;4004;42.624;23.386;2023-08-07T04:22:32;93816.81;;;18.37;99.15
7918;BME280;4004;42.624;23.386;2023-08-07T04:24:58;93817.13;;;18.43;97.90
7918;BME280;4004;42.624;23.386;2023-08-07T04:27:26;93808.50;;;18.48;97.02
7918;BME280;4004;42.624;23.386;2023-08-07T04:29:54;93814.59;;;18.56;94.45
7918;BME280;4004;42.624;23.386;2023-08-07T04:32:21;93827.31;;;18.62;93.56
7918;BME280;4004;42.624;23.386;2023-08-07T04:34:47;93824.28;;;18.84;92.14
7918;BME280;4004;42.624;23.386;2023-08-07T04:37:14;93816.81;;;18.88;90.46
7918;BME280;4004;42.624;23.386;2023-08-07T04:39:41;93820.88;;;19.43;88.14
7918;BME280;4004;42.624;23.386;2023-08-07T04:42:08;93824.00;;;20.55;78.54
7918;BME280;4004;42.624;23.386;2023-08-07T04:44:34;93829.59;;;21.13;73.27
7918;BME280;4004;42.624;23.386;2023-08-07T04:47:03;93830.78;;;21.12;72.23
7918;BME280;4004;42.624;23.386;2023-08-07T04:49:30;93831.19;;;21.27;70.58
7918;BME280;4004;42.624;23.386;2023-08-07T04:51:57;93831.09;;;20.85;72.45
7918;BME280;4004;42.624;23.386;2023-08-07T04:54:24;93826.78;;;20.51;73.99
7918;BME280;4004;42.624;23.386;2023-08-07T04:56:51;93827.38;;;20.42;75.45
7918;BME280;4004;42.624;23.386;2023-08-07T04:59:18;93833.75;;;20.88;72.79
7918;BME280;4004;42.624;23.386;2023-08-07T05:01:44;93839.09;;;21.83;68.34
7918;BME280;4004;42.624;23.386;2023-08-07T05:04:12;93842.16;;;23.26;60.89
7918;BME280;4004;42.624;23.386;2023-08-07T05:06:39;93839.59;;;24.82;55.45
7918;BME280;4004;42.624;23.386;2023-08-07T05:09:06;93838.16;;;26.11;50.29
7918;BME280;4004;42.624;23.386;2023-08-07T05:11:33;93831.78;;;27.14;47.59
7918;BME280;4004;42.624;23.386;2023-08-07T05:14:00;93824.78;;;28.05;44.13
7918;BME280;4004;42.624;23.386;2023-08-07T05:16:26;93827.28;;;28.18;43.49
7918;BME280;4004;42.624;23.386;2023-08-07T05:18:53;93834.97;;;28.59;42.14
7918;BME280;4004;42.624;23.386;2023-08-07T05:21:21;93836.88;;;29.03;40.92
7918;BME280;4004;42.624;23.386;2023-08-07T05:23:48;93836.03;;;29.32;39.91
7918;BME280;4004;42.624;23.386;2023-08-07T05:26:18;93829.59;;;29.20;40.11
7918;BME280;4004;42.624;23.386;2023-08-07T05:28:45;93830.91;;;29.86;39.12
7918;BME280;4004;42.624;23.386;2023-08-07T05:31:12;93832.72;;;30.42;37.70
7918;BME280;4004;42.624;23.386;2023-08-07T05:33:38;93812.78;;;30.43;37.18
7918;BME280;4004;42.624;23.386;2023-08-07T05:36:06;93830.13;;;30.70;36.30
7918;BME280;4004;42.624;23.386;2023-08-07T05:38:34;93830.16;;;31.02;35.89
7918;BME280;4004;42.624;23.386;2023-08-07T05:41:01;93836.00;;;31.64;35.15
7918;BME280;4004;42.624;23.386;2023-08-07T05:43:28;93829.81;;;32.08;34.40
7918;BME280;4004;42.624;23.386;2023-08-07T05:45:54;93832.94;;;32.67;33.16
7918;BME280;4004;42.624;23.386;2023-08-07T05:48:21;93832.06;;;33.34;32.29
7918;BME280;4004;42.624;23.386;2023-08-07T05:50:48;93841.88;;;33.57;31.49
7918;BME280;4004;42.624;23.386;2023-08-07T05:53:14;93833.38;;;33.91;30.95
7918;BME280;4004;42.624;23.386;2023-08-07T05:55:43;93845.41;;;34.22;30.60
7918;BME280;4004;42.624;23.386;2023-08-07T05:58:09;93844.38;;;34.25;30.32
7918;BME280;4004;42.624;23.386;2023-08-07T06:00:36;93842.69;;;34.11;30.19
7918;BME280;4004;42.624;23.386;2023-08-07T06:03:03;93842.50;;;32.88;31.61
7918;BME280;4004;42.624;23.386;2023-08-07T06:05:30;93845.81;;;33.09;31.46
7918;BME280;4004;42.624;23.386;2023-08-07T06:07:56;93841.00;;;32.70;31.58
7918;BME280;4004;42.624;23.386;2023-08-07T06:10:24;93840.50;;;32.89;31.63
7918;BME280;4004;42.624;23.386;2023-08-07T06:12:52;93832.91;;;33.12;31.35
7918;BME280;4004;42.624;23.386;2023-08-07T06:15:18;93833.31;;;33.38;30.97
7918;BME280;4004;42.624;23.386;2023-08-07T06:17:45;93836.84;;;33.44;31.05
7918;BME280;4004;42.624;23.386;2023-08-07T06:20:12;93836.19;;;32.37;31.84
7918;BME280;4004;42.624;23.386;2023-08-07T06:22:39;93834.38;;;31.40;33.17
7918;BME280;4004;42.624;23.386;2023-08-07T06:25:07;93831.69;;;31.08;33.92
7918;BME280;4004;42.624;23.386;2023-08-07T06:27:34;93824.38;;;30.73;34.52
7918;BME280;4004;42.624;23.386;2023-08-07T06:30:02;93816.59;;;30.83;34.23
7918;BME280;4004;42.624;23.386;2023-08-07T06:32:29;93813.94;;;30.63;34.65
7918;BME280;4004;42.624;23.386;2023-08-07T06:34:55;93808.81;;;30.24;34.92
7918;BME280;4004;42.624;23.386;2023-08-07T06:37:22;93815.47;;;30.06;35.94
7918;BME280;4004;42.624;23.386;2023-08-07T06:39:49;93812.28;;;30.13;35.24
7918;BME280;4004;42.624;23.386;2023-08-07T06:42:16;93813.25;;;30.36;35.04
7918;BME280;4004;42.624;23.386;2023-08-07T06:44:42;93822.53;;;30.65;33.86
7918;BME280;4004;42.624;23.386;2023-08-07T06:47:10;93826.19;;;30.50;34.17
7918;BME280;4004;42.624;23.386;2023-08-07T06:49:37;93828.91;;;30.76;33.41
7918;BME280;4004;42.624;23.386;2023-08-07T06:52:04;93825.75;;;30.89;33.48
7918;BME280;4004;42.624;23.386;2023-08-07T06:54:31;93832.94;;;31.07;33.22
7918;BME280;4004;42.624;23.386;2023-08-07T06:56:58;93828.13;;;31.08;33.01
7918;BME280;4004;42.624;23.386;2023-08-07T06:59:25;93832.66;;;31.05;33.01
7918;BME280;4004;42.624;23.386;2023-08-07T07:01:52;93833.31;;;31.32;31.61
7918;BME280;4004;42.624;23.386;2023-08-07T07:04:20;93833.94;;;31.04;30.46
7918;BME280;4004;42.624;23.386;2023-08-07T07:06:46;93831.38;;;30.95;30.38
7918;BME280;4004;42.624;23.386;2023-08-07T07:09:13;93828.00;;;30.53;30.37
7918;BME280;4004;42.624;23.386;2023-08-07T07:11:42;93832.22;;;30.75;30.86
7918;BME280;4004;42.624;23.386;2023-08-07T07:14:09;93825.25;;;30.53;31.23
7918;BME280;4004;42.624;23.386;2023-08-07T07:16:36;93828.97;;;30.50;31.37
7918;BME280;4004;42.624;23.386;2023-08-07T07:19:03;93821.09;;;30.43;31.61
7918;BME280;4004;42.624;23.386;2023-08-07T07:21:33;93828.66;;;30.16;31.48
7918;BME280;4004;42.624;23.386;2023-08-07T07:24:00;93822.75;;;29.77;31.78
7918;BME280;4004;42.624;23.386;2023-08-07T07:26:27;93821.78;;;29.19;33.02
7918;BME280;4004;42.624;23.386;2023-08-07T07:28:54;93822.31;;;29.43;32.25
7918;BME280;4004;42.624;23.386;2023-08-07T07:31:20;93816.28;;;29.86;32.03
7918;BME280;4004;42.624;23.386;2023-08-07T07:33:48;93810.31;;;29.93;32.10
7918;BME280;4004;42.624;23.386;2023-08-07T07:36:15;93822.16;;;30.20;31.95
7918;BME280;4004;42.624;23.386;2023-08-07T07:38:45;93824.22;;;30.25;31.95
7918;BME280;4004;42.624;23.386;2023-08-07T07:41:12;93820.16;;;30.26;31.71
7918;BME280;4004;42.624;23.386;2023-08-07T07:43:39;93829.75;;;30.51;31.83
7918;BME280;4004;42.624;23.386;2023-08-07T07:46:06;93835.94;;;30.66;31.43
7918;BME280;4004;42.624;23.386;2023-08-07T07:48:33;93832.03;;;30.52;31.35
7918;BME280;4004;42.624;23.386;2023-08-07T07:50:59;93827.78;;;29.58;32.90
7918;BME280;4004;42.624;23.386;2023-08-07T07:53:27;93829.78;;;29.17;33.55
7918;BME280;4004;42.624;23.386;2023-08-07T07:55:55;93824.91;;;28.91;33.63
7918;BME280;4004;42.624;23.386;2023-08-07T07:58:21;93824.78;;;28.65;34.66
7918;BME280;4004;42.624;23.386;2023-08-07T08:00:48;93813.16;;;28.16;35.30
7918;BME280;4004;42.624;23.386;2023-08-07T08:03:17;93807.63;;;28.31;35.75
7918;BME280;4004;42.624;23.386;2023-08-07T08:05:44;93810.50;;;28.51;35.03
7918;BME280;4004;42.624;23.386;2023-08-07T08:08:11;93810.41;;;28.46;35.14
7918;BME280;4004;42.624;23.386;2023-08-07T08:10:38;93811.16;;;28.46;35.32
7918;BME280;4004;42.624;23.386;2023-08-07T08:13:08;93810.50;;;28.22;36.10
7918;BME280;4004;42.624;23.386;2023-08-07T08:15:35;93806.09;;;28.45;35.36
7918;BME280;4004;42.624;23.386;2023-08-07T08:18:02;93812.56;;;28.57;35.32
7918;BME280;4004;42.624;23.386;2023-08-07T08:20:29;93813.09;;;28.90;34.90
7918;BME280;4004;42.624;23.386;2023-08-07T08:22:58;93811.13;;;29.11;34.81
7918;BME280;4004;42.624;23.386;2023-08-07T08:25:25;93813.88;;;29.11;34.28
7918;BME280;4004;42.624;23.386;2023-08-07T08:27:52;93806.84;;;28.96;34.37
7918;BME280;4004;42.624;23.386;2023-08-07T08:30:20;93803.53;;;28.91;34.78
7918;BME280;4004;42.624;23.386;2023-08-07T08:32:47;93805.78;;;28.72;34.95
7918;BME280;4004;42.624;23.386;2023-08-07T08:35:14;93797.91;;;28.50;35.17
7918;BME280;4004;42.624;23.386;2023-08-07T08:37:41;93799.44;;;28.22;35.58
7918;BME280;4004;42.624;23.386;2023-08-07T08:40:08;93795.25;;;28.11;36.17
7918;BME280;4004;42.624;23.386;2023-08-07T08:42:39;93788.69;;;28.24;36.15
7918;BME280;4004;42.624;23.386;2023-08-07T08:45:09;93788.44;;;27.83;36.47
7918;BME280;4004;42.624;23.386;2023-08-07T08:47:38;93790.16;;;27.26;36.63
7918;BME280;4004;42.624;23.386;2023-08-07T08:50:08;93788.88;;;26.88;37.52
7918;BME280;4004;42.624;23.386;2023-08-07T08:52:37;93794.00;;;26.72;38.64
7918;BME280;4004;42.624;23.386;2023-08-07T08:55:05;93782.34;;;27.01;37.78
7918;BME280;4004;42.624;23.386;2023-08-07T08:57:32;93788.84;;;27.22;36.85
7918;BME280;4004;42.624;23.386;2023-08-07T09:00:00;93780.59;;;27.13;36.87
7918;BME280;4004;42.624;23.386;2023-08-07T09:02:28;93774.88;;;27.16;37.02
7918;BME280;4004;42.624;23.386;2023-08-07T09:04:56;93759.88;;;26.69;38.38
7918;BME280;4004;42.624;23.386;2023-08-07T09:07:23;93757.75;;;26.64;38.28
7918;BME280;4004;42.624;23.386;2023-08-07T09:09:52;93765.69;;;26.71;38.43
7918;BME280;4004;42.624;23.386;2023-08-07T09:12:20;93760.69;;;26.84;38.10
7918;BME280;4004;42.624;23.386;2023-08-07T09:14:53;93772.13;;;26.92;37.97
7918;BME280;4004;42.624;23.386;2023-08-07T09:17:23;93770.31;;;26.89;38.05
7918;BME280;4004;42.624;23.386;2023-08-07T09:19:50;93771.00;;;26.99;37.30
7918;BME280;4004;42.624;23.386;2023-08-07T09:22:20;93770.03;;;26.87;37.42
7918;BME280;4004;42.624;23.386;2023-08-07T09:24:46;93762.97;;;27.10;37.29
7918;BME280;4004;42.624;23.386;2023-08-07T09:27:14;93767.09;;;27.15;37.16
7918;BME280;4004;42.624;23.386;2023-08-07T09:29:41;93765.09;;;27.15;36.89
7918;BME280;4004;42.624;23.386;2023-08-07T09:32:12;93752.75;;;27.25;36.28
7918;BME280;4004;42.624;23.386;2023-08-07T09:34:39;93747.28;;;27.16;36.64
7918;BME280;4004;42.624;23.386;2023-08-07T09:37:07;93752.72;;;26.86;37.16
7918;BME280;4004;42.624;23.386;2023-08-07T09:39:35;93747.78;;;26.66;36.92
7918;BME280;4004;42.624;23.386;2023-08-07T09:42:02;93749.78;;;26.33;37.93
7918;BME280;4004;42.624;23.386;2023-08-07T09:44:35;93754.88;;;26.16;38.40
7918;BME280;4004;42.624;23.386;2023-08-07T09:47:11;93742.59;;;25.65;38.65
7918;BME280;4004;42.624;23.386;2023-08-07T09:49:38;93735.25;;;25.71;38.54
7918;BME280;4004;42.624;23.386;2023-08-07T09:52:06;93743.84;;;25.64;39.27
7918;BME280;4004;42.624;23.386;2023-08-07T09:54:35;93757.44;;;25.58;39.51
7918;BME280;4004;42.624;23.386;2023-08-07T09:57:02;93756.81;;;25.82;39.14
7918;BME280;4004;42.624;23.386;2023-08-07T09:59:29;93748.22;;;25.89;39.00
7918;BME280;4004;42.624;23.386;2023-08-07T10:02:00;93748.72;;;25.69;39.27
7918;BME280;4004;42.624;23.386;2023-08-07T10:04:27;93748.59;;;25.63;39.70
7918;BME280;4004;42.624;23.386;2023-08-07T10:06:54;93753.00;;;25.61;39.03
7918;BME280;4004;42.624;23.386;2023-08-07T10:09:22;93735.13;;;25.47;39.70
7918;BME280;4004;42.624;23.386;2023-08-07T10:11:50;93753.78;;;25.61;39.55
7918;BME280;4004;42.624;23.386;2023-08-07T10:14:18;93756.69;;;25.58;39.37
7918;BME280;4004;42.624;23.386;2023-08-07T10:16:45;93755.94;;;25.39;39.46
7918;BME280;4004;42.624;23.386;2023-08-07T10:19:12;93749.97;;;25.40;40.08
7918;BME280;4004;42.624;23.386;2023-08-07T10:21:40;93746.75;;;25.51;39.54
7918;BME280;4004;42.624;23.386;2023-08-07T10:24:09;93738.97;;;25.40;39.84
7918;BME280;4004;42.624;23.386;2023-08-07T10:26:41;93740.69;;;25.19;40.83
7918;BME280;4004;42.624;23.386;2023-08-07T10:29:14;93738.50;;;25.14;41.15
7918;BME280;4004;42.624;23.386;2023-08-07T10:31:43;93741.09;;;25.09;41.13
7918;BME280;4004;42.624;23.386;2023-08-07T10:34:11;93741.28;;;25.23;40.47
7918;BME280;4004;42.624;23.386;2023-08-07T10:36:39;93742.03;;;25.33;40.54
7918;BME280;4004;42.624;23.386;2023-08-07T10:39:07;93736.19;;;25.50;40.71
7918;BME280;4004;42.624;23.386;2023-08-07T10:41:41;93733.59;;;25.64;40.55
7918;BME280;4004;42.624;23.386;2023-08-07T10:44:20;93732.66;;;25.77;40.23
7918;BME280;4004;42.624;23.386;2023-08-07T10:46:48;93730.81;;;25.74;39.58
7918;BME280;4004;42.624;23.386;2023-08-07T10:49:30;93735.41;;;25.68;39.40
7918;BME280;4004;42.624;23.386;2023-08-07T10:51:58;93731.59;;;25.65;40.10
7918;BME280;4004;42.624;23.386;2023-08-07T10:54:25;93728.56;;;25.44;40.55
7918;BME280;4004;42.624;23.386;2023-08-07T10:56:53;93728.44;;;25.48;40.86
7918;BME280;4004;42.624;23.386;2023-08-07T10:59:22;93724.41;;;25.58;40.50
7918;BME280;4004;42.624;23.386;2023-08-07T11:01:54;93728.81;;;25.74;40.03
7918;BME280;4004;42.624;23.386;2023-08-07T11:04:22;93716.13;;;25.77;39.69
7918;BME280;4004;42.624;23.386;2023-08-07T11:06:50;93723.94;;;25.69;39.94
7918;BME280;4004;42.624;23.386;2023-08-07T11:09:17;93719.38;;;25.66;39.97
7918;BME280;4004;42.624;23.386;2023-08-07T11:11:45;93708.78;;;25.74;39.95
7918;BME280;4004;42.624;23.386;2023-08-07T11:14:13;93706.59;;;25.87;39.71
7918;BME280;4004;42.624;23.386;2023-08-07T11:16:42;93701.09;;;25.96;38.57
7918;BME280;4004;42.624;23.386;2023-08-07T11:19:11;93697.28;;;25.94;38.72
7918;BME280;4004;42.624;23.386;2023-08-07T11:21:37;93694.38;;;25.79;39.58
7918;BME280;4004;42.624;23.386;2023-08-07T11:24:04;93687.81;;;25.76;40.06
7918;BME280;4004;42.624;23.386;2023-08-07T11:26:31;93699.28;;;25.84;38.74
7918;BME280;4004;42.624;23.386;2023-08-07T11:28:58;93688.56;;;25.95;38.94
7918;BME280;4004;42.624;23.386;2023-08-07T11:31:25;93693.31;;;25.95;39.21
7918;BME280;4004;42.624;23.386;2023-08-07T11:33:55;93680.25;;;26.04;39.47
7918;BME280;4004;42.624;23.386;2023-08-07T11:36:23;93672.59;;;26.09;39.12
7918;BME280;4004;42.624;23.386;2023-08-07T11:38:50;93677.63;;;26.10;38.95
7918;BME280;4004;42.624;23.386;2023-08-07T11:41:18;93677.53;;;26.29;38.87
7918;BME280;4004;42.624;23.386;2023-08-07T11:43:45;93680.25;;;26.62;38.90
7918;BME280;4004;42.624;23.386;2023-08-07T11:46:13;93676.19;;;26.72;38.45
7918;BME280;4004;42.624;23.386;2023-08-07T11:48:42;93678.13;;;26.57;38.09
7918;BME280;4004;42.624;23.386;2023-08-07T11:51:10;93684.28;;;26.52;39.29
7918;BME280;4004;42.624;23.386;2023-08-07T11:53:39;93690.34;;;26.65;38.43
7918;BME280;4004;42.624;23.386;2023-08-07T11:56:08;93690.41;;;26.56;37.83
7918;BME280;4004;42.624;23.386;2023-08-07T11:58:36;93676.91;;;26.58;37.87
7918;BME280;4004;42.624;23.386;2023-08-07T12:01:04;93667.63;;;26.70;37.35
7918;BME280;4004;42.624;23.386;2023-08-07T12:03:32;93673.44;;;26.72;37.48
7918;BME280;4004;42.624;23.386;2023-08-07T12:06:05;93676.63;;;26.80;37.39
7918;BME280;4004;42.624;23.386;2023-08-07T12:08:35;93665.22;;;26.87;37.73
7918;BME280;4004;42.624;23.386;2023-08-07T12:11:02;93687.69;;;26.95;37.55
7918;BME280;4004;42.624;23.386;2023-08-07T12:13:30;93671.69;;;26.84;37.75
7918;BME280;4004;42.624;23.386;2023-08-07T12:16:00;93656.69;;;27.00;37.89
7918;BME280;4004;42.624;23.386;2023-08-07T12:18:27;93663.41;;;27.23;37.32
7918;BME280;4004;42.624;23.386;2023-08-07T12:20:58;93656.94;;;27.41;36.97
7918;BME280;4004;42.624;23.386;2023-08-07T12:23:25;93656.75;;;27.44;36.92
7918;BME280;4004;42.624;23.386;2023-08-07T12:25:54;93659.03;;;27.61;37.03
7918;BME280;4004;42.624;23.386;2023-08-07T12:28:21;93633.31;;;27.69;36.89
7918;BME280;4004;42.624;23.386;2023-08-07T12:30:48;93649.44;;;27.86;36.07
7918;BME280;4004;42.624;23.386;2023-08-07T12:33:16;93651.50;;;27.91;36.03
7918;BME280;4004;42.624;23.386;2023-08-07T12:35:43;93657.75;;;28.06;35.96
7918;BME280;4004;42.624;23.386;2023-08-07T12:38:10;93648.88;;;28.17;36.09
7918;BME280;4004;42.624;23.386;2023-08-07T12:40:39;93656.63;;;28.34;35.65
7918;BME280;4004;42.624;23.386;2023-08-07T12:43:08;93649.75;;;28.44;35.78
7918;BME280;4004;42.624;23.386;2023-08-07T12:45:34;93655.59;;;28.31;35.99
7918;BME280;4004;42.624;23.386;2023-08-07T12:48:01;93673.06;;;28.22;36.04
7918;BME280;4004;42.624;23.386;2023-08-07T12:50:29;93681.03;;;28.00;36.41
7918;BME280;4004;42.624;23.386;2023-08-07T12:52:56;93669.72;;;27.53;37.26
7918;BME280;4004;42.624;23.386;2023-08-07T12:55:23;93658.06;;;27.34;38.27
7918;BME280;4004;42.624;23.386;2023-08-07T12:57:52;93674.09;;;27.60;37.62
7918;BME280;4004;42.624;23.386;2023-08-07T13:00:21;93651.06;;;27.48;37.92
7918;BME280;4004;42.624;23.386;2023-08-07T13:02:49;93667.53;;;27.57;38.08
7918;BME280;4004;42.624;23.386;2023-08-07T13:05:17;93667.03;;;27.59;37.91
7918;BME280;4004;42.624;23.386;2023-08-07T13:07:45;93662.09;;;27.48;38.91
7918;BME280;4004;42.624;23.386;2023-08-07T13:10:13;93675.31;;;27.44;38.95